sensor_id;sensor_type;location;lat;lon;timestamp;P1;durP1;ratioP1;P2;durP2;ratioP2
3629;SDS011;1831;53.626;10.012;2022-08-23T00:02:22;7.87;;;3.33;;
3629;SDS011;1831;53.626;10.012;2022-08-23T00:04:50;7.17;;;3.37;;
3629;SDS011;1831;53.626;10.012;2022-08-23T00:07:17;9.07;;;3.73;;
3629;SDS011;1831;53.626;10.012;2022-08-23T00:09:45;6.63;;;3.70;;
3629;SDS011;1831;53.626;10.012;2022-08-23T00:12:13;8.30;;;3.87;;
3629;SDS011;1831;53.626;10.012;2022-08-23T00:14:42;12.70;;;4.30;;
3629;SDS011;1831;53.626;10.012;2022-08-23T00:17:11;5.60;;;3.70;;
3629;SDS011;1831;53.626;10.012;2022-08-23T00:19:39;8.10;;;3.70;;
3629;SDS011;1831;53.626;10.012;2022-08-23T00:22:07;9.93;;;3.57;;
3629;SDS011;1831;53.626;10.012;2022-08-23T00:24:35;8.03;;;3.40;;
3629;SDS011;1831;53.626;10.012;2022-08-23T00:27:05;5.70;;;3.13;;
3629;SDS011;1831;53.626;10.012;2022-08-23T00:29:35;7.37;;;2.97;;
3629;SDS011;1831;53.626;10.012;2022-08-23T00:32:05;6.60;;;3.37;;
3629;SDS011;1831;53.626;10.012;2022-08-23T00:34:33;8.73;;;3.80;;
3629;SDS011;1831;53.626;10.012;2022-08-23T00:37:01;5.53;;;3.40;;
3629;SDS011;1831;53.626;10.012;2022-08-23T00:39:28;6.67;;;3.83;;
3629;SDS011;1831;53.626;10.012;2022-08-23T00:41:57;6.17;;;3.70;;
3629;SDS011;1831;53.626;10.012;2022-08-23T00:44:28;4.90;;;3.57;;
3629;SDS011;1831;53.626;10.012;2022-08-23T00:47:16;7.50;;;3.70;;
3629;SDS011;1831;53.626;10.012;2022-08-23T00:50:03;8.50;;;3.73;;
3629;SDS011;1831;53.626;10.012;2022-08-23T00:52:39;8.27;;;5.20;;
3629;SDS011;1831;53.626;10.012;2022-08-23T00:55:10;6.17;;;4.27;;
3629;SDS011;1831;53.626;10.012;2022-08-23T00:57:38;9.13;;;3.70;;
3629;SDS011;1831;53.626;10.012;2022-08-23T01:00:07;9.73;;;4.33;;
3629;SDS011;1831;53.626;10.012;2022-08-23T01:02:35;8.10;;;4.27;;
3629;SDS011;1831;53.626;10.012;2022-08-23T01:05:03;9.13;;;3.60;;
3629;SDS011;1831;53.626;10.012;2022-08-23T01:07:34;6.57;;;3.37;;
3629;SDS011;1831;53.626;10.012;2022-08-23T01:10:13;6.47;;;3.43;;
3629;SDS011;1831;53.626;10.012;2022-08-23T01:12:47;5.63;;;3.77;;
3629;SDS011;1831;53.626;10.012;2022-08-23T01:15:20;4.20;;;2.90;;
3629;SDS011;1831;53.626;10.012;2022-08-23T01:17:53;8.33;;;4.00;;
3629;SDS011;1831;53.626;10.012;2022-08-23T01:20:26;8.30;;;4.53;;
3629;SDS011;1831;53.626;10.012;2022-08-23T01:23:01;5.70;;;3.93;;
3629;SDS011;1831;53.626;10.012;2022-08-23T01:25:35;5.97;;;3.80;;
3629;SDS011;1831;53.626;10.012;2022-08-23T01:28:03;6.30;;;3.67;;
3629;SDS011;1831;53.626;10.012;2022-08-23T01:30:30;8.23;;;5.10;;
3629;SDS011;1831;53.626;10.012;2022-08-23T01:32:59;7.03;;;4.00;;
3629;SDS011;1831;53.626;10.012;2022-08-23T01:35:30;7.83;;;4.40;;
3629;SDS011;1831;53.626;10.012;2022-08-23T01:38:01;6.87;;;4.73;;
3629;SDS011;1831;53.626;10.012;2022-08-23T01:40:28;8.73;;;4.27;;
3629;SDS011;1831;53.626;10.012;2022-08-23T01:42:58;9.10;;;6.90;;
3629;SDS011;1831;53.626;10.012;2022-08-23T01:45:26;9.40;;;5.53;;
3629;SDS011;1831;53.626;10.012;2022-08-23T01:47:53;9.97;;;4.10;;
3629;SDS011;1831;53.626;10.012;2022-08-23T01:50:21;8.33;;;4.30;;
3629;SDS011;1831;53.626;10.012;2022-08-23T01:52:49;6.87;;;4.33;;
3629;SDS011;1831;53.626;10.012;2022-08-23T01:55:16;4.80;;;3.53;;
3629;SDS011;1831;53.626;10.012;2022-08-23T01:57:44;5.30;;;3.90;;
3629;SDS011;1831;53.626;10.012;2022-08-23T02:00:13;5.77;;;3.63;;
3629;SDS011;1831;53.626;10.012;2022-08-23T02:02:41;8.17;;;3.63;;
3629;SDS011;1831;53.626;10.012;2022-08-23T02:05:09;9.00;;;5.80;;
3629;SDS011;1831;53.626;10.012;2022-08-23T02:07:36;8.03;;;4.90;;
3629;SDS011;1831;53.626;10.012;2022-08-23T02:10:03;10.47;;;6.20;;
3629;SDS011;1831;53.626;10.012;2022-08-23T02:12:32;7.50;;;5.60;;
3629;SDS011;1831;53.626;10.012;2022-08-23T02:14:59;6.70;;;4.70;;
3629;SDS011;1831;53.626;10.012;2022-08-23T02:17:27;6.50;;;4.00;;
3629;SDS011;1831;53.626;10.012;2022-08-23T02:19:54;8.87;;;4.10;;
3629;SDS011;1831;53.626;10.012;2022-08-23T02:22:21;6.10;;;3.97;;
3629;SDS011;1831;53.626;10.012;2022-08-23T02:24:48;5.87;;;3.70;;
3629;SDS011;1831;53.626;10.012;2022-08-23T02:27:15;8.07;;;4.40;;
3629;SDS011;1831;53.626;10.012;2022-08-23T02:29:43;6.80;;;3.97;;
3629;SDS011;1831;53.626;10.012;2022-08-23T02:32:12;7.17;;;3.67;;
3629;SDS011;1831;53.626;10.012;2022-08-23T02:34:42;12.23;;;4.00;;
3629;SDS011;1831;53.626;10.012;2022-08-23T02:37:11;12.60;;;3.93;;
3629;SDS011;1831;53.626;10.012;2022-08-23T02:39:39;6.17;;;3.70;;
3629;SDS011;1831;53.626;10.012;2022-08-23T02:42:06;8.50;;;4.20;;
3629;SDS011;1831;53.626;10.012;2022-08-23T02:44:34;7.20;;;3.70;;
3629;SDS011;1831;53.626;10.012;2022-08-23T02:47:01;6.73;;;4.80;;
3629;SDS011;1831;53.626;10.012;2022-08-23T02:49:31;7.97;;;4.00;;
3629;SDS011;1831;53.626;10.012;2022-08-23T02:51:59;6.87;;;4.00;;
3629;SDS011;1831;53.626;10.012;2022-08-23T02:54:26;7.37;;;3.40;;
3629;SDS011;1831;53.626;10.012;2022-08-23T02:56:53;8.00;;;3.97;;
3629;SDS011;1831;53.626;10.012;2022-08-23T02:59:20;7.80;;;4.53;;
3629;SDS011;1831;53.626;10.012;2022-08-23T03:01:47;10.53;;;4.40;;
3629;SDS011;1831;53.626;10.012;2022-08-23T03:04:15;6.37;;;4.23;;
3629;SDS011;1831;53.626;10.012;2022-08-23T03:06:41;5.53;;;3.40;;
3629;SDS011;1831;53.626;10.012;2022-08-23T03:09:10;8.03;;;4.00;;
3629;SDS011;1831;53.626;10.012;2022-08-23T03:11:40;6.57;;;4.70;;
3629;SDS011;1831;53.626;10.012;2022-08-23T03:14:09;7.83;;;4.40;;
3629;SDS011;1831;53.626;10.012;2022-08-23T03:16:37;7.50;;;4.73;;
3629;SDS011;1831;53.626;10.012;2022-08-23T03:19:04;7.17;;;4.60;;
3629;SDS011;1831;53.626;10.012;2022-08-23T03:21:31;8.43;;;4.20;;
3629;SDS011;1831;53.626;10.012;2022-08-23T03:23:58;7.77;;;4.43;;
3629;SDS011;1831;53.626;10.012;2022-08-23T03:26:27;7.53;;;4.80;;
3629;SDS011;1831;53.626;10.012;2022-08-23T03:28:54;5.77;;;4.37;;
3629;SDS011;1831;53.626;10.012;2022-08-23T03:31:21;9.10;;;4.07;;
3629;SDS011;1831;53.626;10.012;2022-08-23T03:33:48;9.07;;;5.23;;
3629;SDS011;1831;53.626;10.012;2022-08-23T03:36:15;7.73;;;5.00;;
3629;SDS011;1831;53.626;10.012;2022-08-23T03:38:42;7.30;;;4.23;;
3629;SDS011;1831;53.626;10.012;2022-08-23T03:41:09;8.87;;;4.50;;
3629;SDS011;1831;53.626;10.012;2022-08-23T03:43:38;9.03;;;4.97;;
3629;SDS011;1831;53.626;10.012;2022-08-23T03:46:05;6.80;;;4.70;;
3629;SDS011;1831;53.626;10.012;2022-08-23T03:48:32;8.43;;;5.00;;
3629;SDS011;1831;53.626;10.012;2022-08-23T03:51:00;8.03;;;4.80;;
3629;SDS011;1831;53.626;10.012;2022-08-23T03:53:27;7.80;;;4.60;;
3629;SDS011;1831;53.626;10.012;2022-08-23T03:55:54;10.70;;;5.03;;
3629;SDS011;1831;53.626;10.012;2022-08-23T03:58:21;7.73;;;4.43;;
3629;SDS011;1831;53.626;10.012;2022-08-23T04:00:53;8.17;;;4.70;;
3629;SDS011;1831;53.626;10.012;2022-08-23T04:03:21;7.10;;;4.53;;
3629;SDS011;1831;53.626;10.012;2022-08-23T04:05:48;13.07;;;5.07;;
3629;SDS011;1831;53.626;10.012;2022-08-23T04:08:15;7.67;;;5.33;;
3629;SDS011;1831;53.626;10.012;2022-08-23T04:10:42;6.30;;;4.70;;
3629;SDS011;1831;53.626;10.012;2022-08-23T04:13:10;6.13;;;5.03;;
3629;SDS011;1831;53.626;10.012;2022-08-23T04:15:37;6.43;;;4.60;;
3629;SDS011;1831;53.626;10.012;2022-08-23T04:18:05;7.10;;;5.03;;
3629;SDS011;1831;53.626;10.012;2022-08-23T04:20:32;6.80;;;4.80;;
3629;SDS011;1831;53.626;10.012;2022-08-23T04:22:59;16.63;;;5.40;;
3629;SDS011;1831;53.626;10.012;2022-08-23T04:25:26;8.60;;;5.37;;
3629;SDS011;1831;53.626;10.012;2022-08-23T04:27:55;11.40;;;4.70;;
3629;SDS011;1831;53.626;10.012;2022-08-23T04:30:22;9.10;;;5.80;;
3629;SDS011;1831;53.626;10.012;2022-08-23T04:32:49;9.07;;;5.80;;
3629;SDS011;1831;53.626;10.012;2022-08-23T04:35:17;6.27;;;4.97;;
3629;SDS011;1831;53.626;10.012;2022-08-23T04:37:44;7.60;;;4.90;;
3629;SDS011;1831;53.626;10.012;2022-08-23T04:40:11;7.70;;;5.60;;
3629;SDS011;1831;53.626;10.012;2022-08-23T04:42:55;8.30;;;5.67;;
3629;SDS011;1831;53.626;10.012;2022-08-23T04:45:22;7.40;;;5.50;;
3629;SDS011;1831;53.626;10.012;2022-08-23T04:47:51;8.83;;;7.00;;
3629;SDS011;1831;53.626;10.012;2022-08-23T04:50:19;8.70;;;6.17;;
3629;SDS011;1831;53.626;10.012;2022-08-23T04:52:46;11.70;;;6.00;;
3629;SDS011;1831;53.626;10.012;2022-08-23T04:55:13;7.93;;;5.63;;
3629;SDS011;1831;53.626;10.012;2022-08-23T04:57:40;8.53;;;4.90;;
3629;SDS011;1831;53.626;10.012;2022-08-23T05:00:09;8.27;;;5.47;;
3629;SDS011;1831;53.626;10.012;2022-08-23T05:02:37;7.43;;;4.67;;
3629;SDS011;1831;53.626;10.012;2022-08-23T05:05:05;6.50;;;4.60;;
3629;SDS011;1831;53.626;10.012;2022-08-23T05:07:34;8.97;;;6.27;;
3629;SDS011;1831;53.626;10.012;2022-08-23T05:10:01;7.67;;;5.40;;
3629;SDS011;1831;53.626;10.012;2022-08-23T05:12:29;6.90;;;4.30;;
3629;SDS011;1831;53.626;10.012;2022-08-23T05:14:55;11.93;;;5.30;;
3629;SDS011;1831;53.626;10.012;2022-08-23T05:17:22;7.23;;;4.93;;
3629;SDS011;1831;53.626;10.012;2022-08-23T05:19:49;11.17;;;5.60;;
3629;SDS011;1831;53.626;10.012;2022-08-23T05:22:16;7.77;;;5.33;;
3629;SDS011;1831;53.626;10.012;2022-08-23T05:24:45;7.93;;;5.50;;
3629;SDS011;1831;53.626;10.012;2022-08-23T05:27:12;9.13;;;5.63;;
3629;SDS011;1831;53.626;10.012;2022-08-23T05:29:39;9.53;;;5.57;;
3629;SDS011;1831;53.626;10.012;2022-08-23T05:32:07;8.80;;;5.43;;
3629;SDS011;1831;53.626;10.012;2022-08-23T05:34:34;8.10;;;4.77;;
3629;SDS011;1831;53.626;10.012;2022-08-23T05:37:02;8.00;;;5.37;;
3629;SDS011;1831;53.626;10.012;2022-08-23T05:39:29;7.43;;;5.13;;
3629;SDS011;1831;53.626;10.012;2022-08-23T05:41:57;9.57;;;5.80;;
3629;SDS011;1831;53.626;10.012;2022-08-23T05:44:24;14.10;;;5.90;;
3629;SDS011;1831;53.626;10.012;2022-08-23T05:46:51;8.33;;;5.43;;
3629;SDS011;1831;53.626;10.012;2022-08-23T05:49:18;7.67;;;4.90;;
3629;SDS011;1831;53.626;10.012;2022-08-23T05:51:45;6.50;;;5.07;;
3629;SDS011;1831;53.626;10.012;2022-08-23T05:54:11;8.57;;;4.97;;
3629;SDS011;1831;53.626;10.012;2022-08-23T05:56:39;7.30;;;5.00;;
3629;SDS011;1831;53.626;10.012;2022-08-23T05:59:11;13.50;;;5.80;;
3629;SDS011;1831;53.626;10.012;2022-08-23T06:01:41;7.17;;;5.27;;
3629;SDS011;1831;53.626;10.012;2022-08-23T06:04:09;8.47;;;5.60;;
3629;SDS011;1831;53.626;10.012;2022-08-23T06:06:37;10.23;;;5.13;;
3629;SDS011;1831;53.626;10.012;2022-08-23T06:09:08;11.33;;;4.70;;
3629;SDS011;1831;53.626;10.012;2022-08-23T06:11:37;13.07;;;5.43;;
3629;SDS011;1831;53.626;10.012;2022-08-23T06:14:05;7.77;;;4.87;;
3629;SDS011;1831;53.626;10.012;2022-08-23T06:16:35;6.70;;;4.63;;
3629;SDS011;1831;53.626;10.012;2022-08-23T06:19:04;8.10;;;4.73;;
3629;SDS011;1831;53.626;10.012;2022-08-23T06:21:32;9.80;;;4.80;;
3629;SDS011;1831;53.626;10.012;2022-08-23T06:24:00;7.47;;;4.63;;
3629;SDS011;1831;53.626;10.012;2022-08-23T06:26:28;6.53;;;4.30;;
3629;SDS011;1831;53.626;10.012;2022-08-23T06:28:57;5.87;;;4.20;;
3629;SDS011;1831;53.626;10.012;2022-08-23T06:31:28;6.00;;;4.47;;
3629;SDS011;1831;53.626;10.012;2022-08-23T06:34:13;7.37;;;5.10;;
3629;SDS011;1831;53.626;10.012;2022-08-23T06:36:45;10.20;;;5.30;;
3629;SDS011;1831;53.626;10.012;2022-08-23T06:39:13;8.57;;;4.80;;
3629;SDS011;1831;53.626;10.012;2022-08-23T06:41:41;13.47;;;6.20;;
3629;SDS011;1831;53.626;10.012;2022-08-23T06:44:08;8.50;;;5.03;;
3629;SDS011;1831;53.626;10.012;2022-08-23T06:46:36;7.87;;;5.20;;
3629;SDS011;1831;53.626;10.012;2022-08-23T06:49:03;9.73;;;5.07;;
3629;SDS011;1831;53.626;10.012;2022-08-23T06:51:33;10.03;;;4.80;;
3629;SDS011;1831;53.626;10.012;2022-08-23T06:54:03;8.30;;;4.27;;
3629;SDS011;1831;53.626;10.012;2022-08-23T06:56:33;7.43;;;4.10;;
3629;SDS011;1831;53.626;10.012;2022-08-23T06:59:00;7.93;;;4.70;;
3629;SDS011;1831;53.626;10.012;2022-08-23T07:01:31;9.47;;;5.10;;
3629;SDS011;1831;53.626;10.012;2022-08-23T07:04:00;7.37;;;4.93;;
3629;SDS011;1831;53.626;10.012;2022-08-23T07:06:28;9.43;;;4.97;;
3629;SDS011;1831;53.626;10.012;2022-08-23T07:08:56;7.80;;;4.77;;
3629;SDS011;1831;53.626;10.012;2022-08-23T07:11:24;10.10;;;5.07;;
3629;SDS011;1831;53.626;10.012;2022-08-23T07:13:55;13.30;;;6.07;;
3629;SDS011;1831;53.626;10.012;2022-08-23T07:16:23;5.60;;;4.10;;
3629;SDS011;1831;53.626;10.012;2022-08-23T07:18:50;7.47;;;4.67;;
3629;SDS011;1831;53.626;10.012;2022-08-23T07:21:19;13.20;;;5.10;;
3629;SDS011;1831;53.626;10.012;2022-08-23T07:23:46;11.00;;;4.70;;
3629;SDS011;1831;53.626;10.012;2022-08-23T07:26:15;6.30;;;4.00;;
3629;SDS011;1831;53.626;10.012;2022-08-23T07:28:43;7.47;;;4.37;;
3629;SDS011;1831;53.626;10.012;2022-08-23T07:31:11;7.93;;;4.70;;
3629;SDS011;1831;53.626;10.012;2022-08-23T07:33:40;21.43;;;4.40;;
3629;SDS011;1831;53.626;10.012;2022-08-23T07:36:08;6.90;;;4.40;;
3629;SDS011;1831;53.626;10.012;2022-08-23T07:38:38;7.03;;;4.30;;
3629;SDS011;1831;53.626;10.012;2022-08-23T07:41:05;7.53;;;4.33;;
3629;SDS011;1831;53.626;10.012;2022-08-23T07:43:33;6.80;;;4.43;;
3629;SDS011;1831;53.626;10.012;2022-08-23T07:46:00;7.43;;;4.43;;
3629;SDS011;1831;53.626;10.012;2022-08-23T07:48:28;6.80;;;4.17;;
3629;SDS011;1831;53.626;10.012;2022-08-23T07:50:58;6.63;;;4.60;;
3629;SDS011;1831;53.626;10.012;2022-08-23T07:53:26;6.43;;;4.43;;
3629;SDS011;1831;53.626;10.012;2022-08-23T07:55:53;7.40;;;4.23;;
3629;SDS011;1831;53.626;10.012;2022-08-23T07:58:21;10.00;;;6.00;;
3629;SDS011;1831;53.626;10.012;2022-08-23T08:00:51;8.27;;;5.27;;
3629;SDS011;1831;53.626;10.012;2022-08-23T08:03:18;5.13;;;4.00;;
3629;SDS011;1831;53.626;10.012;2022-08-23T08:05:47;6.63;;;3.80;;
3629;SDS011;1831;53.626;10.012;2022-08-23T08:08:14;5.87;;;3.37;;
3629;SDS011;1831;53.626;10.012;2022-08-23T08:10:41;4.70;;;3.33;;
3629;SDS011;1831;53.626;10.012;2022-08-23T08:13:08;9.63;;;3.70;;
3629;SDS011;1831;53.626;10.012;2022-08-23T08:15:38;5.80;;;3.80;;
3629;SDS011;1831;53.626;10.012;2022-08-23T08:18:09;8.70;;;3.50;;
3629;SDS011;1831;53.626;10.012;2022-08-23T08:20:36;4.50;;;3.20;;
3629;SDS011;1831;53.626;10.012;2022-08-23T08:23:03;5.73;;;3.37;;
3629;SDS011;1831;53.626;10.012;2022-08-23T08:25:31;5.93;;;3.10;;
3629;SDS011;1831;53.626;10.012;2022-08-23T08:27:59;6.33;;;3.30;;
3629;SDS011;1831;53.626;10.012;2022-08-23T08:30:26;5.03;;;3.27;;
3629;SDS011;1831;53.626;10.012;2022-08-23T08:32:53;5.33;;;2.97;;
3629;SDS011;1831;53.626;10.012;2022-08-23T08:35:21;5.00;;;3.20;;
3629;SDS011;1831;53.626;10.012;2022-08-23T08:37:48;6.37;;;3.33;;
3629;SDS011;1831;53.626;10.012;2022-08-23T08:40:16;5.77;;;3.67;;
3629;SDS011;1831;53.626;10.012;2022-08-23T08:42:53;6.13;;;3.30;;
3629;SDS011;1831;53.626;10.012;2022-08-23T08:45:35;5.70;;;3.37;;
3629;SDS011;1831;53.626;10.012;2022-08-23T08:48:12;7.07;;;3.73;;
3629;SDS011;1831;53.626;10.012;2022-08-23T08:50:44;6.10;;;3.33;;
3629;SDS011;1831;53.626;10.012;2022-08-23T08:53:16;5.97;;;3.30;;
3629;SDS011;1831;53.626;10.012;2022-08-23T08:55:48;7.10;;;3.30;;
3629;SDS011;1831;53.626;10.012;2022-08-23T08:58:20;7.00;;;4.10;;
3629;SDS011;1831;53.626;10.012;2022-08-23T09:00:52;6.40;;;3.57;;
3629;SDS011;1831;53.626;10.012;2022-08-23T09:03:19;6.10;;;3.57;;
3629;SDS011;1831;53.626;10.012;2022-08-23T09:05:50;6.47;;;3.90;;
3629;SDS011;1831;53.626;10.012;2022-08-23T09:08:27;6.10;;;4.43;;
3629;SDS011;1831;53.626;10.012;2022-08-23T09:11:09;6.03;;;3.77;;
3629;SDS011;1831;53.626;10.012;2022-08-23T09:13:51;6.33;;;4.03;;
3629;SDS011;1831;53.626;10.012;2022-08-23T09:16:36;6.33;;;4.57;;
3629;SDS011;1831;53.626;10.012;2022-08-23T09:19:12;8.77;;;4.60;;
3629;SDS011;1831;53.626;10.012;2022-08-23T09:21:42;6.80;;;4.90;;
3629;SDS011;1831;53.626;10.012;2022-08-23T09:24:12;9.10;;;4.20;;
3629;SDS011;1831;53.626;10.012;2022-08-23T09:26:40;13.10;;;3.70;;
3629;SDS011;1831;53.626;10.012;2022-08-23T09:29:12;10.63;;;4.50;;
3629;SDS011;1831;53.626;10.012;2022-08-23T09:31:44;6.77;;;3.80;;
3629;SDS011;1831;53.626;10.012;2022-08-23T09:34:15;5.10;;;3.93;;
3629;SDS011;1831;53.626;10.012;2022-08-23T09:36:46;6.10;;;4.20;;
3629;SDS011;1831;53.626;10.012;2022-08-23T09:39:23;5.17;;;3.60;;
3629;SDS011;1831;53.626;10.012;2022-08-23T09:41:53;5.47;;;3.80;;
3629;SDS011;1831;53.626;10.012;2022-08-23T09:44:29;6.50;;;4.10;;
3629;SDS011;1831;53.626;10.012;2022-08-23T09:47:06;6.07;;;3.70;;
3629;SDS011;1831;53.626;10.012;2022-08-23T09:49:36;5.60;;;3.60;;
3629;SDS011;1831;53.626;10.012;2022-08-23T09:52:11;7.20;;;3.10;;
3629;SDS011;1831;53.626;10.012;2022-08-23T09:54:53;6.83;;;3.60;;
3629;SDS011;1831;53.626;10.012;2022-08-23T09:57:23;8.33;;;3.70;;
3629;SDS011;1831;53.626;10.012;2022-08-23T09:59:52;5.80;;;3.47;;
3629;SDS011;1831;53.626;10.012;2022-08-23T10:02:23;5.37;;;3.30;;
3629;SDS011;1831;53.626;10.012;2022-08-23T10:04:58;6.13;;;3.47;;
3629;SDS011;1831;53.626;10.012;2022-08-23T10:07:31;5.63;;;3.30;;
3629;SDS011;1831;53.626;10.012;2022-08-23T10:12:48;9.37;;;3.73;;
3629;SDS011;1831;53.626;10.012;2022-08-23T10:15:16;5.97;;;3.20;;
3629;SDS011;1831;53.626;10.012;2022-08-23T10:17:45;5.87;;;3.40;;
3629;SDS011;1831;53.626;10.012;2022-08-23T10:20:25;4.57;;;3.37;;
3629;SDS011;1831;53.626;10.012;2022-08-23T10:23:05;7.30;;;3.83;;
3629;SDS011;1831;53.626;10.012;2022-08-23T10:25:50;5.20;;;3.07;;
3629;SDS011;1831;53.626;10.012;2022-08-23T10:28:24;5.50;;;2.70;;
3629;SDS011;1831;53.626;10.012;2022-08-23T10:31:18;6.37;;;3.40;;
3629;SDS011;1831;53.626;10.012;2022-08-23T10:33:57;4.87;;;2.83;;
3629;SDS011;1831;53.626;10.012;2022-08-23T10:36:42;7.33;;;3.30;;
3629;SDS011;1831;53.626;10.012;2022-08-23T10:39:22;5.80;;;3.20;;
3629;SDS011;1831;53.626;10.012;2022-08-23T10:41:54;5.47;;;2.97;;
3629;SDS011;1831;53.626;10.012;2022-08-23T10:44:29;4.30;;;2.80;;
3629;SDS011;1831;53.626;10.012;2022-08-23T10:47:03;5.60;;;2.77;;
3629;SDS011;1831;53.626;10.012;2022-08-23T10:49:42;6.70;;;3.23;;
3629;SDS011;1831;53.626;10.012;2022-08-23T10:52:14;5.93;;;2.50;;
3629;SDS011;1831;53.626;10.012;2022-08-23T10:54:47;7.63;;;4.30;;
3629;SDS011;1831;53.626;10.012;2022-08-23T10:57:27;5.70;;;4.17;;
3629;SDS011;1831;53.626;10.012;2022-08-23T10:59:58;4.97;;;3.30;;
3629;SDS011;1831;53.626;10.012;2022-08-23T11:02:28;4.67;;;2.90;;
3629;SDS011;1831;53.626;10.012;2022-08-23T11:05:07;6.03;;;3.30;;
3629;SDS011;1831;53.626;10.012;2022-08-23T11:07:54;4.57;;;2.70;;
3629;SDS011;1831;53.626;10.012;2022-08-23T11:10:28;4.67;;;2.70;;
3629;SDS011;1831;53.626;10.012;2022-08-23T11:12:59;6.60;;;2.70;;
3629;SDS011;1831;53.626;10.012;2022-08-23T11:15:36;8.80;;;3.10;;
3629;SDS011;1831;53.626;10.012;2022-08-23T11:18:07;4.53;;;2.50;;
3629;SDS011;1831;53.626;10.012;2022-08-23T11:20:59;5.30;;;2.60;;
3629;SDS011;1831;53.626;10.012;2022-08-23T11:29:31;4.30;;;2.10;;
3629;SDS011;1831;53.626;10.012;2022-08-23T11:32:06;3.73;;;2.00;;
3629;SDS011;1831;53.626;10.012;2022-08-23T11:34:49;10.83;;;2.37;;
3629;SDS011;1831;53.626;10.012;2022-08-23T11:37:28;4.47;;;2.43;;
3629;SDS011;1831;53.626;10.012;2022-08-23T11:40:13;5.20;;;2.17;;
3629;SDS011;1831;53.626;10.012;2022-08-23T11:43:01;3.80;;;2.00;;
3629;SDS011;1831;53.626;10.012;2022-08-23T11:45:40;4.50;;;2.10;;
3629;SDS011;1831;53.626;10.012;2022-08-23T11:48:12;4.20;;;1.87;;
3629;SDS011;1831;53.626;10.012;2022-08-23T11:50:45;6.40;;;2.33;;
3629;SDS011;1831;53.626;10.012;2022-08-23T11:53:31;5.80;;;3.03;;
3629;SDS011;1831;53.626;10.012;2022-08-23T11:56:11;3.20;;;1.87;;
3629;SDS011;1831;53.626;10.012;2022-08-23T11:58:56;6.93;;;2.47;;
3629;SDS011;1831;53.626;10.012;2022-08-23T12:01:36;7.87;;;2.03;;
3629;SDS011;1831;53.626;10.012;2022-08-23T12:04:06;5.10;;;2.00;;
3629;SDS011;1831;53.626;10.012;2022-08-23T12:06:40;4.20;;;2.70;;
3629;SDS011;1831;53.626;10.012;2022-08-23T12:09:10;3.87;;;2.20;;
3629;SDS011;1831;53.626;10.012;2022-08-23T12:12:09;17.33;;;3.47;;
3629;SDS011;1831;53.626;10.012;2022-08-23T12:14:51;4.33;;;2.23;;
3629;SDS011;1831;53.626;10.012;2022-08-23T12:20:37;6.90;;;2.30;;
3629;SDS011;1831;53.626;10.012;2022-08-23T12:23:13;4.57;;;2.10;;
3629;SDS011;1831;53.626;10.012;2022-08-23T12:25:42;4.50;;;2.13;;
3629;SDS011;1831;53.626;10.012;2022-08-23T12:28:17;4.20;;;2.10;;
3629;SDS011;1831;53.626;10.012;2022-08-23T12:30:56;3.93;;;1.83;;
3629;SDS011;1831;53.626;10.012;2022-08-23T12:33:30;4.43;;;2.10;;
3629;SDS011;1831;53.626;10.012;2022-08-23T12:36:09;6.07;;;2.20;;
3629;SDS011;1831;53.626;10.012;2022-08-23T12:38:45;5.00;;;2.00;;
3629;SDS011;1831;53.626;10.012;2022-08-23T12:41:21;4.20;;;2.10;;
3629;SDS011;1831;53.626;10.012;2022-08-23T12:43:55;6.47;;;2.40;;
3629;SDS011;1831;53.626;10.012;2022-08-23T12:46:29;6.90;;;2.30;;
3629;SDS011;1831;53.626;10.012;2022-08-23T12:48:59;3.70;;;2.20;;
3629;SDS011;1831;53.626;10.012;2022-08-23T12:51:30;3.80;;;2.13;;
3629;SDS011;1831;53.626;10.012;2022-08-23T12:53:59;3.30;;;1.93;;
3629;SDS011;1831;53.626;10.012;2022-08-23T12:56:37;10.20;;;2.53;;
3629;SDS011;1831;53.626;10.012;2022-08-23T12:59:05;3.50;;;2.30;;
3629;SDS011;1831;53.626;10.012;2022-08-23T13:01:40;4.23;;;2.20;;
3629;SDS011;1831;53.626;10.012;2022-08-23T13:04:11;4.30;;;2.27;;
3629;SDS011;1831;53.626;10.012;2022-08-23T13:06:43;4.47;;;2.57;;
3629;SDS011;1831;53.626;10.012;2022-08-23T13:09:14;6.03;;;3.13;;
3629;SDS011;1831;53.626;10.012;2022-08-23T13:11:44;5.70;;;2.73;;
3629;SDS011;1831;53.626;10.012;2022-08-23T13:14:22;7.40;;;2.30;;
3629;SDS011;1831;53.626;10.012;2022-08-23T13:16:50;3.40;;;1.70;;
3629;SDS011;1831;53.626;10.012;2022-08-23T13:19:21;6.70;;;2.20;;
3629;SDS011;1831;53.626;10.012;2022-08-23T13:24:38;8.20;;;2.30;;
3629;SDS011;1831;53.626;10.012;2022-08-23T13:27:10;4.57;;;1.80;;
3629;SDS011;1831;53.626;10.012;2022-08-23T13:29:48;4.50;;;2.07;;
3629;SDS011;1831;53.626;10.012;2022-08-23T13:32:24;6.20;;;2.10;;
3629;SDS011;1831;53.626;10.012;2022-08-23T13:37:50;8.97;;;2.37;;
3629;SDS011;1831;53.626;10.012;2022-08-23T13:40:19;4.63;;;2.20;;
3629;SDS011;1831;53.626;10.012;2022-08-23T13:42:48;4.60;;;2.30;;
3629;SDS011;1831;53.626;10.012;2022-08-23T13:45:25;6.00;;;2.30;;
3629;SDS011;1831;53.626;10.012;2022-08-23T13:47:55;4.60;;;2.00;;
3629;SDS011;1831;53.626;10.012;2022-08-23T13:50:26;9.03;;;2.50;;
3629;SDS011;1831;53.626;10.012;2022-08-23T13:52:56;5.33;;;2.53;;
3629;SDS011;1831;53.626;10.012;2022-08-23T13:55:24;5.03;;;2.30;;
3629;SDS011;1831;53.626;10.012;2022-08-23T13:57:53;3.83;;;2.27;;
3629;SDS011;1831;53.626;10.012;2022-08-23T14:00:20;5.17;;;2.13;;
3629;SDS011;1831;53.626;10.012;2022-08-23T14:02:49;4.40;;;2.10;;
3629;SDS011;1831;53.626;10.012;2022-08-23T14:05:19;4.73;;;1.87;;
3629;SDS011;1831;53.626;10.012;2022-08-23T14:07:47;4.67;;;1.97;;
3629;SDS011;1831;53.626;10.012;2022-08-23T14:10:18;4.40;;;1.73;;
3629;SDS011;1831;53.626;10.012;2022-08-23T14:12:46;4.23;;;2.00;;
3629;SDS011;1831;53.626;10.012;2022-08-23T14:15:16;4.97;;;1.97;;
3629;SDS011;1831;53.626;10.012;2022-08-23T14:17:45;3.53;;;1.80;;
3629;SDS011;1831;53.626;10.012;2022-08-23T14:20:14;3.93;;;2.00;;
3629;SDS011;1831;53.626;10.012;2022-08-23T14:22:42;3.40;;;1.67;;
3629;SDS011;1831;53.626;10.012;2022-08-23T14:25:09;3.23;;;1.90;;
3629;SDS011;1831;53.626;10.012;2022-08-23T14:27:39;2.90;;;1.80;;
3629;SDS011;1831;53.626;10.012;2022-08-23T14:30:08;5.57;;;2.20;;
3629;SDS011;1831;53.626;10.012;2022-08-23T14:32:50;4.40;;;2.20;;
3629;SDS011;1831;53.626;10.012;2022-08-23T14:35:17;2.87;;;1.57;;
3629;SDS011;1831;53.626;10.012;2022-08-23T14:37:44;4.87;;;1.93;;
3629;SDS011;1831;53.626;10.012;2022-08-23T14:40:11;4.70;;;2.10;;
3629;SDS011;1831;53.626;10.012;2022-08-23T14:42:40;3.37;;;1.70;;
3629;SDS011;1831;53.626;10.012;2022-08-23T14:45:07;3.87;;;1.70;;
3629;SDS011;1831;53.626;10.012;2022-08-23T14:47:35;4.20;;;2.00;;
3629;SDS011;1831;53.626;10.012;2022-08-23T14:50:04;5.63;;;2.03;;
3629;SDS011;1831;53.626;10.012;2022-08-23T14:52:34;4.33;;;2.10;;
3629;SDS011;1831;53.626;10.012;2022-08-23T14:55:01;4.10;;;1.83;;
3629;SDS011;1831;53.626;10.012;2022-08-23T14:57:31;3.80;;;1.73;;
3629;SDS011;1831;53.626;10.012;2022-08-23T15:00:00;3.67;;;1.87;;
3629;SDS011;1831;53.626;10.012;2022-08-23T15:02:27;6.60;;;2.33;;
3629;SDS011;1831;53.626;10.012;2022-08-23T15:04:55;4.10;;;1.90;;
3629;SDS011;1831;53.626;10.012;2022-08-23T15:07:27;7.33;;;2.37;;
3629;SDS011;1831;53.626;10.012;2022-08-23T15:09:55;4.20;;;1.97;;
3629;SDS011;1831;53.626;10.012;2022-08-23T15:12:21;4.30;;;1.70;;
3629;SDS011;1831;53.626;10.012;2022-08-23T15:14:48;2.90;;;1.63;;
3629;SDS011;1831;53.626;10.012;2022-08-23T15:17:17;4.80;;;2.40;;
3629;SDS011;1831;53.626;10.012;2022-08-23T15:19:44;3.57;;;2.00;;
3629;SDS011;1831;53.626;10.012;2022-08-23T15:22:11;4.13;;;2.23;;
3629;SDS011;1831;53.626;10.012;2022-08-23T15:24:38;5.37;;;2.10;;
3629;SDS011;1831;53.626;10.012;2022-08-23T15:27:05;4.27;;;1.70;;
3629;SDS011;1831;53.626;10.012;2022-08-23T15:29:33;5.23;;;2.37;;
3629;SDS011;1831;53.626;10.012;2022-08-23T15:32:00;3.27;;;1.90;;
3629;SDS011;1831;53.626;10.012;2022-08-23T15:34:28;4.77;;;2.20;;
3629;SDS011;1831;53.626;10.012;2022-08-23T15:36:55;4.50;;;2.17;;
3629;SDS011;1831;53.626;10.012;2022-08-23T15:39:22;4.57;;;2.20;;